Time;durP1;ratioP1;P1;durP2;ratioP2;P2;SDS_P1;SDS_P2;PMS_P1;PMS_P2;Temp;Humidity;BMP_temperature;BMP_pressure;BME280_temperature;BME280_humidity;BME280_pressure;Samples;Min_cycle;Max_cycle;Signal;HPM_P1;HPM_P2
2023/12/14 00:00:29;;;;;;;14.33;8.70;;;5.20;99.90;;;;;;5093598;28;20105;-76
2023/12/14 00:02:55;;;;;;;16.43;8.53;;;5.10;99.90;;;;;;5092064;28;20153;-76
2023/12/14 00:05:20;;;;;;;15.00;8.40;;;5.10;99.90;;;;;;5093062;28;20079;-76
2023/12/14 00:07:46;;;;;;;16.47;8.20;;;5.10;99.90;;;;;;5092805;28;20476;-76
2023/12/14 00:10:12;;;;;;;16.00;8.30;;;5.10;99.90;;;;;;5092798;28;20040;-76
2023/12/14 00:12:38;;;;;;;18.73;8.93;;;5.10;99.90;;;;;;5093999;28;20047;-76
2023/12/14 00:15:05;;;;;;;12.47;7.70;;;5.10;99.90;;;;;;5095671;28;20079;-76
2023/12/14 00:17:31;;;;;;;18.55;8.35;;;5.10;99.90;;;;;;5095483;28;20746;-75
2023/12/14 00:19:57;;;;;;;16.30;8.23;;;5.10;99.90;;;;;;5096203;28;20047;-76
2023/12/14 00:22:22;;;;;;;15.13;7.53;;;5.10;99.90;;;;;;5096506;28;20070;-76
2023/12/14 00:24:48;;;;;;;15.67;8.53;;;5.10;99.90;;;;;;5096466;28;20051;-76
2023/12/14 00:27:14;;;;;;;14.30;8.43;;;5.10;99.90;;;;;;5095317;28;20083;-76
2023/12/14 00:29:39;;;;;;;14.30;7.47;;;5.10;99.90;;;;;;5095210;28;20044;-76
2023/12/14 00:32:06;;;;;;;12.00;7.93;;;5.10;99.90;;;;;;5095131;28;20043;-76
2023/12/14 00:34:31;;;;;;;16.13;8.02;;;5.10;99.90;;;;;;5096355;28;20079;-76
2023/12/14 00:36:57;;;;;;;15.80;9.07;;;5.00;99.90;;;;;;5096225;28;20078;-76
2023/12/14 00:39:23;;;;;;;16.13;7.60;;;5.00;99.90;;;;;;5096198;28;20078;-76
2023/12/14 00:41:48;;;;;;;14.50;7.90;;;5.10;99.90;;;;;;5096903;28;20101;-76
2023/12/14 00:44:14;;;;;;;15.80;8.10;;;5.00;99.90;;;;;;5096638;28;20040;-76
2023/12/14 00:46:41;;;;;;;14.90;8.20;;;5.00;99.90;;;;;;5096542;28;20044;-76
2023/12/14 00:49:07;;;;;;;13.73;7.55;;;5.00;99.90;;;;;;5095830;28;20512;-76
2023/12/14 00:51:33;;;;;;;13.88;7.53;;;5.10;99.90;;;;;;5094278;28;20079;-76
2023/12/14 00:53:58;;;;;;;12.10;7.00;;;5.00;99.90;;;;;;5094601;28;20076;-76
2023/12/14 00:56:24;;;;;;;13.27;6.90;;;5.00;99.90;;;;;;5095427;28;20056;-76
2023/12/14 00:58:50;;;;;;;12.53;7.77;;;5.00;99.90;;;;;;5095388;28;20444;-76
2023/12/14 01:01:15;;;;;;;10.57;6.63;;;5.00;99.90;;;;;;5095464;28;20073;-76
2023/12/14 01:03:41;;;;;;;11.23;6.90;;;5.00;99.90;;;;;;5095587;28;20392;-76
2023/12/14 01:06:07;;;;;;;12.80;7.10;;;5.00;99.90;;;;;;5094701;28;20051;-76
2023/12/14 01:08:32;;;;;;;12.03;7.17;;;4.90;99.90;;;;;;5096098;28;20032;-76
2023/12/14 01:10:58;;;;;;;10.70;6.33;;;4.90;99.90;;;;;;5094911;28;20040;-76
2023/12/14 01:13:24;;;;;;;9.30;6.77;;;4.90;99.90;;;;;;5094345;28;20481;-76
2023/12/14 01:15:50;;;;;;;11.37;7.07;;;4.90;99.90;;;;;;5094566;28;20044;-76
2023/12/14 01:18:17;;;;;;;11.83;6.93;;;4.90;99.90;;;;;;5095972;28;20478;-76
2023/12/14 01:20:42;;;;;;;9.70;6.25;;;4.90;99.90;;;;;;5095394;28;20435;-76
2023/12/14 01:23:09;;;;;;;10.67;7.33;;;4.90;99.90;;;;;;5095041;28;20105;-76
2023/12/14 01:25:36;;;;;;;14.13;7.40;;;4.80;99.90;;;;;;5094335;28;20048;-76
2023/12/14 01:28:01;;;;;;;11.68;7.03;;;4.80;99.90;;;;;;5094037;28;20048;-76
2023/12/14 01:30:27;;;;;;;11.57;7.60;;;4.80;99.90;;;;;;5095154;28;20052;-76
2023/12/14 01:32:53;;;;;;;12.27;7.33;;;4.80;99.90;;;;;;5095386;28;20089;-76
2023/12/14 01:35:18;;;;;;;12.20;7.10;;;4.70;99.90;;;;;;5094161;28;20086;-76
2023/12/14 01:37:44;;;;;;;12.97;7.77;;;4.80;99.90;;;;;;5095536;28;20048;-76
2023/12/14 01:40:10;;;;;;;12.93;6.90;;;4.70;99.90;;;;;;5095522;28;20051;-75
2023/12/14 01:42:36;;;;;;;10.27;6.70;;;4.80;99.90;;;;;;5094996;28;20044;-75
2023/12/14 01:45:01;;;;;;;10.80;7.20;;;4.80;99.90;;;;;;5094944;28;20508;-76
2023/12/14 01:47:27;;;;;;;9.07;6.20;;;4.80;99.90;;;;;;5094822;28;20097;-76
2023/12/14 01:49:53;;;;;;;11.80;6.80;;;4.80;99.90;;;;;;5094207;28;20044;-76
2023/12/14 01:52:18;;;;;;;10.10;5.77;;;4.80;99.90;;;;;;5095367;28;20044;-76
2023/12/14 01:54:44;;;;;;;11.80;6.23;;;4.80;99.90;;;;;;5093318;28;20396;-75
2023/12/14 01:57:10;;;;;;;14.93;6.83;;;4.80;99.90;;;;;;5094687;28;20048;-76
2023/12/14 01:59:35;;;;;;;8.90;6.37;;;4.80;99.90;;;;;;5095261;28;20047;-76
2023/12/14 02:02:02;;;;;;;8.50;5.57;;;4.80;99.90;;;;;;5094596;28;20043;-76
2023/12/14 02:04:28;;;;;;;9.35;5.90;;;4.80;99.90;;;;;;5076912;28;20123;-76
2023/12/14 02:06:54;;;;;;;11.20;5.83;;;4.80;99.90;;;;;;5093426;28;20127;-76
2023/12/14 02:09:19;;;;;;;9.53;6.77;;;4.80;99.90;;;;;;5094949;28;20047;-76
2023/12/14 02:11:45;;;;;;;11.50;6.43;;;4.80;99.90;;;;;;5094459;28;20055;-76
2023/12/14 02:14:12;;;;;;;9.77;5.63;;;4.70;99.90;;;;;;5094348;28;20048;-76
2023/12/14 02:16:40;;;;;;;11.50;6.93;;;4.80;99.90;;;;;;5093668;28;20131;-76
2023/12/14 02:19:06;;;;;;;8.77;6.25;;;4.80;99.90;;;;;;5094310;28;20399;-76
2023/12/14 02:21:32;;;;;;;9.80;5.40;;;4.80;99.90;;;;;;5093581;28;20048;-76
2023/12/14 02:23:57;;;;;;;9.60;6.00;;;4.80;99.90;;;;;;5094791;28;20377;-76
2023/12/14 02:26:23;;;;;;;9.77;7.03;;;4.90;99.90;;;;;;5094177;28;20373;-76
2023/12/14 02:28:49;;;;;;;10.50;6.80;;;4.80;99.90;;;;;;5094101;28;20123;-76
2023/12/14 02:31:15;;;;;;;11.47;6.43;;;4.80;99.90;;;;;;5094668;28;20040;-76
2023/12/14 02:33:41;;;;;;;11.52;6.85;;;4.80;99.90;;;;;;5094074;28;20040;-76
2023/12/14 02:36:07;;;;;;;13.03;6.83;;;4.80;99.90;;;;;;5093887;28;20043;-76
2023/12/14 02:38:33;;;;;;;14.45;7.82;;;4.80;99.90;;;;;;5094064;28;20075;-76
2023/12/14 02:40:59;;;;;;;14.77;7.50;;;4.80;99.90;;;;;;5094011;28;20076;-76
2023/12/14 02:43:24;;;;;;;14.93;6.90;;;4.90;99.90;;;;;;5094535;28;20055;-76
2023/12/14 02:45:50;;;;;;;16.40;9.03;;;4.90;99.90;;;;;;5093527;28;20561;-76
2023/12/14 02:48:16;;;;;;;14.37;7.77;;;4.90;99.90;;;;;;5092472;28;20043;-76
2023/12/14 02:50:41;;;;;;;13.43;7.63;;;4.80;99.90;;;;;;5093557;28;20048;-76
2023/12/14 02:53:07;;;;;;;14.37;8.30;;;4.80;99.90;;;;;;5092480;28;20048;-76
2023/12/14 02:55:33;;;;;;;16.23;7.87;;;4.90;99.90;;;;;;5093722;28;20066;-76
2023/12/14 02:57:59;;;;;;;16.27;7.93;;;4.90;99.90;;;;;;5093449;28;20388;-76
2023/12/14 03:00:24;;;;;;;13.77;8.40;;;4.80;99.90;;;;;;5093723;28;20047;-76
2023/12/14 03:02:50;;;;;;;16.73;8.47;;;4.80;99.90;;;;;;5092820;28;20044;-75
2023/12/14 03:05:16;;;;;;;16.27;8.53;;;4.90;99.90;;;;;;5093628;28;20404;-76
2023/12/14 03:07:41;;;;;;;14.03;8.00;;;4.90;99.90;;;;;;5092576;28;20044;-76
2023/12/14 03:10:08;;;;;;;16.80;9.23;;;4.80;99.90;;;;;;5093347;28;20048;-76
2023/12/14 03:12:33;;;;;;;17.08;8.82;;;4.90;99.90;;;;;;5092433;28;20044;-76
2023/12/14 03:14:59;;;;;;;19.47;9.47;;;4.90;99.90;;;;;;5092659;28;20131;-76
2023/12/14 03:17:25;;;;;;;13.97;8.37;;;4.90;99.90;;;;;;5094100;28;20097;-76
2023/12/14 03:19:50;;;;;;;15.93;9.10;;;4.90;99.90;;;;;;5093556;28;20051;-75
2023/12/14 03:22:16;;;;;;;18.53;8.63;;;4.90;99.90;;;;;;5093544;28;20475;-76
2023/12/14 03:24:42;;;;;;;14.53;8.77;;;4.90;99.90;;;;;;5092508;28;20044;-76
2023/12/14 03:27:08;;;;;;;17.63;10.13;;;4.90;99.90;;;;;;5093431;28;20048;-76
2023/12/14 03:29:34;;;;;;;17.03;9.20;;;4.90;99.90;;;;;;5093594;28;20048;-76
2023/12/14 03:32:00;;;;;;;17.33;9.45;;;4.90;99.90;;;;;;5093722;28;20071;-76
2023/12/14 03:34:26;;;;;;;16.98;9.10;;;4.90;99.90;;;;;;5092227;28;20095;-76
2023/12/14 03:36:52;;;;;;;18.83;9.27;;;4.90;99.90;;;;;;5092438;28;20044;-76
2023/12/14 03:39:17;;;;;;;15.10;9.10;;;4.90;99.90;;;;;;5092405;28;20071;-76
2023/12/14 03:41:44;;;;;;;18.73;9.10;;;4.80;99.90;;;;;;5093020;28;20068;-76
2023/12/14 03:44:09;;;;;;;15.52;8.40;;;4.80;99.90;;;;;;5093339;28;20131;-76
2023/12/14 03:46:35;;;;;;;17.27;10.10;;;4.90;99.90;;;;;;5094237;28;20135;-76
2023/12/14 03:49:02;;;;;;;19.43;10.40;;;4.80;99.90;;;;;;5096957;28;20055;-76
2023/12/14 03:51:27;;;;;;;22.40;9.75;;;4.90;99.90;;;;;;5096886;28;20048;-76
2023/12/14 03:53:53;;;;;;;19.63;9.80;;;4.90;99.90;;;;;;5096835;28;20047;-76
2023/12/14 03:56:19;;;;;;;18.37;9.70;;;4.80;99.90;;;;;;5096420;28;20105;-76
2023/12/14 03:58:45;;;;;;;18.67;9.73;;;4.90;99.90;;;;;;5096975;28;20131;-76
2023/12/14 04:01:20;;;;;;;24.40;10.53;;;4.90;99.90;;;;;;5096930;28;20050;-76
2023/12/14 04:03:46;;;;;;;18.60;9.90;;;4.90;99.90;;;;;;5096075;28;20048;-76
2023/12/14 04:06:12;;;;;;;20.80;9.60;;;4.90;99.90;;;;;;5096762;28;20059;-76
2023/12/14 04:08:39;;;;;;;18.52;10.23;;;4.90;99.90;;;;;;5096604;28;20044;-75
2023/12/14 04:11:05;;;;;;;24.10;10.98;;;4.90;99.90;;;;;;5095979;28;20118;-75
2023/12/14 04:13:31;;;;;;;17.60;10.15;;;4.90;99.90;;;;;;5096568;28;20044;-76
2023/12/14 04:15:57;;;;;;;21.88;10.68;;;4.90;99.90;;;;;;5096616;28;20468;-75
2023/12/14 04:18:23;;;;;;;21.90;10.52;;;4.90;99.90;;;;;;5095540;28;20081;-76
2023/12/14 04:20:49;;;;;;;22.80;10.90;;;4.90;99.90;;;;;;5096501;28;20051;-76
2023/12/14 04:23:14;;;;;;;20.23;10.03;;;4.90;99.90;;;;;;5097221;28;20039;-76
2023/12/14 04:25:40;;;;;;;20.60;10.93;;;4.80;99.90;;;;;;5096464;28;20415;-76
2023/12/14 04:28:05;;;;;;;28.73;11.30;;;4.90;99.90;;;;;;5094895;28;20071;-76
2023/12/14 04:30:31;;;;;;;24.40;11.13;;;4.90;99.90;;;;;;5079264;28;20059;-76
2023/12/14 04:32:57;;;;;;;20.87;10.20;;;4.90;99.90;;;;;;5096009;28;20048;-76
2023/12/14 04:35:23;;;;;;;26.20;10.90;;;4.90;99.90;;;;;;5096213;28;20044;-76
2023/12/14 04:37:49;;;;;;;23.23;12.13;;;5.00;99.90;;;;;;5095142;28;20135;-76
2023/12/14 04:40:14;;;;;;;24.83;10.30;;;4.90;99.90;;;;;;5095979;28;20044;-76
2023/12/14 04:42:40;;;;;;;21.87;11.27;;;4.90;99.90;;;;;;5096627;28;20286;-76
2023/12/14 04:45:06;;;;;;;20.50;10.73;;;4.90;99.90;;;;;;5096089;28;20044;-76
2023/12/14 04:47:32;;;;;;;23.25;10.93;;;4.90;99.90;;;;;;5094870;28;20504;-76
2023/12/14 04:49:58;;;;;;;22.07;10.23;;;4.90;99.90;;;;;;5095027;28;20052;-76
2023/12/14 04:52:24;;;;;;;23.07;11.50;;;4.90;99.90;;;;;;5094881;28;20491;-76
2023/12/14 04:54:49;;;;;;;24.27;11.13;;;4.90;99.90;;;;;;5096158;28;20074;-75
2023/12/14 04:57:15;;;;;;;20.53;11.00;;;4.90;99.90;;;;;;5096168;28;20369;-76
2023/12/14 04:59:44;;;;;;;20.87;10.77;;;4.90;99.90;;;;;;5094560;28;20044;-76
2023/12/14 05:02:10;;;;;;;19.33;10.80;;;4.90;99.90;;;;;;5095802;28;20505;-76
2023/12/14 05:04:35;;;;;;;21.00;10.83;;;4.90;99.90;;;;;;5096198;28;20127;-76
2023/12/14 05:07:01;;;;;;;19.87;10.47;;;4.90;99.90;;;;;;5095616;28;20076;-76
2023/12/14 05:09:27;;;;;;;23.63;11.80;;;4.90;99.90;;;;;;5095655;28;20090;-76
2023/12/14 05:11:53;;;;;;;18.35;11.57;;;4.90;99.90;;;;;;5095435;28;20056;-76
2023/12/14 05:14:19;;;;;;;20.17;11.37;;;4.90;99.90;;;;;;5095583;28;20104;-76
2023/12/14 05:16:45;;;;;;;19.43;11.00;;;4.90;99.90;;;;;;5095380;28;20464;-76
2023/12/14 05:19:12;;;;;;;22.40;11.17;;;4.90;99.90;;;;;;5095515;28;20040;-76
2023/12/14 05:21:38;;;;;;;22.50;11.40;;;4.90;99.90;;;;;;5095350;28;20583;-76
2023/12/14 05:24:04;;;;;;;18.58;9.45;;;4.90;99.90;;;;;;5095429;28;20067;-76
2023/12/14 05:26:30;;;;;;;20.42;11.05;;;4.90;99.90;;;;;;5077407;28;20048;-76
2023/12/14 05:28:55;;;;;;;21.80;11.20;;;4.90;99.90;;;;;;5095224;28;20063;-76
2023/12/14 05:31:21;;;;;;;23.63;11.67;;;4.90;99.90;;;;;;5095228;28;20052;-76
2023/12/14 05:33:47;;;;;;;26.73;10.60;;;4.90;99.90;;;;;;5095978;28;20052;-76
2023/12/14 05:36:12;;;;;;;16.13;10.57;;;4.90;99.90;;;;;;5095004;28;20376;-76
2023/12/14 05:38:39;;;;;;;21.80;10.87;;;4.90;99.90;;;;;;5093838;28;20043;-76
2023/12/14 05:41:05;;;;;;;18.95;11.00;;;4.90;99.90;;;;;;5094079;28;20480;-76
2023/12/14 05:43:31;;;;;;;24.57;11.27;;;4.90;99.90;;;;;;5094072;28;20055;-76
2023/12/14 05:45:56;;;;;;;24.13;11.60;;;4.80;99.90;;;;;;5094988;28;20044;-76
2023/12/14 05:48:22;;;;;;;21.57;11.53;;;4.90;99.90;;;;;;5094360;28;20048;-76
2023/12/14 05:50:48;;;;;;;25.10;12.80;;;4.90;99.90;;;;;;5093882;28;20135;-76
2023/12/14 05:53:14;;;;;;;23.80;12.77;;;4.90;99.90;;;;;;5095117;28;20048;-76
2023/12/14 05:55:40;;;;;;;18.43;11.30;;;4.90;99.90;;;;;;5094500;28;20529;-76
2023/12/14 05:58:07;;;;;;;20.48;11.18;;;4.90;99.90;;;;;;5094695;28;20047;-76
2023/12/14 06:00:34;;;;;;;20.27;11.70;;;5.00;99.90;;;;;;5094622;28;20137;-76
2023/12/14 06:03:00;;;;;;;23.60;12.88;;;4.90;99.90;;;;;;5093656;28;20046;-76
2023/12/14 06:05:26;;;;;;;27.50;13.10;;;4.90;99.90;;;;;;5094187;28;20044;-76
2023/12/14 06:07:52;;;;;;;22.00;11.97;;;4.90;99.90;;;;;;5094483;28;20043;-76
2023/12/14 06:10:18;;;;;;;24.87;12.90;;;4.90;99.90;;;;;;5094100;28;20048;-76
2023/12/14 06:12:43;;;;;;;24.77;12.30;;;4.90;99.90;;;;;;5093763;28;20055;-76
2023/12/14 06:15:10;;;;;;;24.13;11.20;;;4.90;99.90;;;;;;5094429;28;20278;-76
2023/12/14 06:17:38;;;;;;;25.15;11.48;;;4.90;99.90;;;;;;5094637;28;20388;-76
2023/12/14 06:20:05;;;;;;;25.48;12.18;;;4.90;99.90;;;;;;5094356;28;20051;-76
2023/12/14 06:22:31;;;;;;;21.67;11.70;;;4.90;99.90;;;;;;5094253;28;20050;-76
2023/12/14 06:24:56;;;;;;;24.13;11.93;;;5.00;99.90;;;;;;5095140;28;20123;-76
2023/12/14 06:27:26;;;;;;;26.07;13.50;;;5.00;99.90;;;;;;5094146;28;20052;-76
2023/12/14 06:29:52;;;;;;;22.85;11.70;;;5.00;99.90;;;;;;5093417;28;20056;-76
2023/12/14 06:32:18;;;;;;;24.00;11.60;;;5.00;99.90;;;;;;5094188;28;20116;-76
2023/12/14 06:34:43;;;;;;;20.07;11.87;;;5.00;99.90;;;;;;5094138;28;20052;-76
2023/12/14 06:37:10;;;;;;;23.00;11.47;;;5.00;99.90;;;;;;5094072;28;20040;-76
2023/12/14 06:39:36;;;;;;;23.77;12.43;;;5.00;99.90;;;;;;5094007;28;20056;-76
2023/12/14 06:42:02;;;;;;;28.03;12.40;;;5.00;99.90;;;;;;5094027;28;20051;-76
2023/12/14 06:44:27;;;;;;;22.60;12.33;;;5.00;99.90;;;;;;5092857;28;20122;-76
2023/12/14 06:46:54;;;;;;;22.43;12.00;;;5.00;99.90;;;;;;5093190;28;20117;-76
2023/12/14 06:49:20;;;;;;;22.52;11.00;;;4.90;99.90;;;;;;5094486;28;20052;-76
2023/12/14 06:51:46;;;;;;;19.60;11.90;;;4.90;99.90;;;;;;5092638;28;20059;-76
2023/12/14 06:54:12;;;;;;;25.87;12.07;;;5.00;99.90;;;;;;5094310;28;20044;-76
2023/12/14 06:56:38;;;;;;;25.37;13.03;;;4.90;99.90;;;;;;5093978;28;20058;-76
2023/12/14 06:59:03;;;;;;;20.93;11.37;;;4.90;99.90;;;;;;5093782;28;20048;-76
2023/12/14 07:01:29;;;;;;;25.70;12.23;;;4.90;99.90;;;;;;5093768;28;20437;-76
2023/12/14 07:03:55;;;;;;;22.50;12.23;;;4.90;99.90;;;;;;5093711;28;20044;-76
2023/12/14 07:06:21;;;;;;;25.30;13.67;;;4.90;99.90;;;;;;5093684;28;20056;-76
2023/12/14 07:08:47;;;;;;;18.23;11.37;;;4.90;99.90;;;;;;5092584;28;20048;-76
2023/12/14 07:11:13;;;;;;;30.58;13.00;;;5.00;99.90;;;;;;5093647;28;20042;-76
2023/12/14 07:13:40;;;;;;;35.23;15.07;;;5.00;99.90;;;;;;5109644;28;20044;-76
2023/12/14 07:16:17;;;;;;;23.35;12.05;;;5.00;99.90;;;;;;5092442;28;20278;-76
2023/12/14 07:18:43;;;;;;;20.75;11.35;;;5.00;99.90;;;;;;5093910;28;20133;-76
2023/12/14 07:21:09;;;;;;;22.23;12.53;;;5.00;99.90;;;;;;5092897;28;20110;-76
2023/12/14 07:23:35;;;;;;;24.15;13.20;;;5.00;99.90;;;;;;5096977;28;20586;-76
2023/12/14 07:26:01;;;;;;;25.35;12.90;;;5.00;99.90;;;;;;5097573;28;20047;-76
2023/12/14 07:28:28;;;;;;;26.30;13.00;;;5.10;99.90;;;;;;5097259;28;20461;-76
2023/12/14 07:30:54;;;;;;;25.27;12.65;;;5.10;99.90;;;;;;5097540;28;20055;-76
2023/12/14 07:33:20;;;;;;;28.07;12.97;;;5.20;99.90;;;;;;5097573;28;20086;-76
2023/12/14 07:35:46;;;;;;;25.47;12.13;;;5.10;99.90;;;;;;5096320;28;20290;-76
2023/12/14 07:38:12;;;;;;;28.40;13.43;;;5.20;99.90;;;;;;5097114;28;20135;-76
2023/12/14 07:40:41;;;;;;;32.77;13.13;;;5.20;99.90;;;;;;5097952;28;20059;-77
2023/12/14 07:43:07;;;;;;;21.30;12.47;;;5.20;99.90;;;;;;5096365;28;20634;-76
2023/12/14 07:45:33;;;;;;;32.00;14.02;;;5.20;99.90;;;;;;5097323;28;20350;-77
2023/12/14 07:47:59;;;;;;;29.23;12.85;;;5.20;99.90;;;;;;5097231;28;20040;-76
2023/12/14 07:50:26;;;;;;;26.50;13.10;;;5.20;99.90;;;;;;5096462;28;20048;-76
2023/12/14 07:52:52;;;;;;;23.27;12.43;;;5.30;99.90;;;;;;5097662;28;20081;-76
2023/12/14 07:55:18;;;;;;;23.83;12.25;;;5.20;99.90;;;;;;5096044;28;20282;-76
2023/12/14 07:57:44;;;;;;;22.13;11.63;;;5.30;99.90;;;;;;5096945;28;20048;-75
2023/12/14 08:00:10;;;;;;;23.17;13.53;;;5.20;99.90;;;;;;5097029;28;20320;-76
2023/12/14 08:02:36;;;;;;;24.80;13.67;;;5.20;99.90;;;;;;5079014;28;20083;-80
2023/12/14 08:05:03;;;;;;;26.13;12.73;;;5.20;99.90;;;;;;5096935;28;20286;-76
2023/12/14 08:07:29;;;;;;;22.63;12.23;;;5.20;99.90;;;;;;5095737;28;20309;-76
2023/12/14 08:09:58;;;;;;;24.43;12.77;;;5.30;99.90;;;;;;5096840;28;20271;-76
2023/12/14 08:12:24;;;;;;;31.00;13.57;;;5.20;99.90;;;;;;5095813;28;20765;-76
2023/12/14 08:14:50;;;;;;;31.57;14.00;;;5.20;99.90;;;;;;5096719;28;20282;-77
2023/12/14 08:17:16;;;;;;;26.87;13.20;;;5.30;99.90;;;;;;5096600;28;20036;-77
2023/12/14 08:19:42;;;;;;;26.40;12.63;;;5.30;99.90;;;;;;5095602;28;20281;-77
2023/12/14 08:22:11;;;;;;;20.52;11.85;;;5.30;99.90;;;;;;5096540;28;20403;-74
2023/12/14 08:24:37;;;;;;;25.50;13.23;;;5.30;99.90;;;;;;5096792;28;20446;-74
2023/12/14 08:27:03;;;;;;;25.70;13.27;;;5.30;99.90;;;;;;5096872;28;20294;-74
2023/12/14 08:29:28;;;;;;;26.77;14.07;;;5.30;99.90;;;;;;5095734;28;20340;-74
2023/12/14 08:31:57;;;;;;;27.47;14.37;;;5.40;99.90;;;;;;5096315;28;20634;-74
2023/12/14 08:34:23;;;;;;;27.77;14.60;;;5.40;99.90;;;;;;5095184;28;20046;-74
2023/12/14 08:36:49;;;;;;;27.93;14.87;;;5.40;99.90;;;;;;5097017;28;20282;-74
2023/12/14 08:39:15;;;;;;;33.23;14.87;;;5.50;99.90;;;;;;5096234;28;20814;-74
2023/12/14 08:41:41;;;;;;;26.70;13.10;;;5.50;99.90;;;;;;5096884;28;20040;-73
2023/12/14 08:44:07;;;;;;;27.27;13.70;;;5.50;99.90;;;;;;5096161;28;20503;-74
2023/12/14 08:46:44;;;;;;;25.50;13.03;;;5.50;99.90;;;;;;5094919;28;20279;-75
2023/12/14 08:49:11;;;;;;;21.50;12.43;;;5.60;99.90;;;;;;5095071;28;20427;-74
2023/12/14 08:51:38;;;;;;;22.97;12.43;;;5.50;99.90;;;;;;5096782;28;20293;-74
2023/12/14 08:54:04;;;;;;;27.50;14.03;;;5.50;99.90;;;;;;5095925;28;20282;-74
2023/12/14 08:56:30;;;;;;;24.97;13.73;;;5.50;99.90;;;;;;5077675;28;20658;-74
2023/12/14 08:58:57;;;;;;;34.50;15.10;;;5.60;99.90;;;;;;5095747;28;20293;-74
2023/12/14 09:01:23;;;;;;;23.90;13.23;;;5.50;99.90;;;;;;5094791;28;20758;-74
2023/12/14 09:03:49;;;;;;;23.40;12.53;;;5.60;99.90;;;;;;5095769;28;20775;-74
2023/12/14 09:06:16;;;;;;;22.33;12.70;;;5.60;99.90;;;;;;5095831;28;20278;-74
2023/12/14 09:08:42;;;;;;;20.60;12.17;;;5.60;99.90;;;;;;5095234;28;20356;-77
2023/12/14 09:11:08;;;;;;;23.83;13.23;;;5.60;99.90;;;;;;5095669;28;20285;-76
2023/12/14 09:13:34;;;;;;;24.13;12.80;;;5.50;99.90;;;;;;5094401;28;20364;-76
2023/12/14 09:16:00;;;;;;;23.47;12.07;;;5.50;99.90;;;;;;5095523;28;20040;-76
2023/12/14 09:18:25;;;;;;;25.43;13.20;;;5.50;99.90;;;;;;5095514;28;20036;-77
2023/12/14 09:20:51;;;;;;;25.57;11.90;;;5.50;99.90;;;;;;5094402;28;20048;-76
2023/12/14 09:23:18;;;;;;;23.07;12.90;;;5.40;99.90;;;;;;5095441;28;20051;-75
2023/12/14 09:25:44;;;;;;;21.43;12.70;;;5.50;99.90;;;;;;5095043;28;20484;-76
2023/12/14 09:28:10;;;;;;;29.77;14.33;;;5.40;99.90;;;;;;5093848;28;20306;-76
2023/12/14 09:30:36;;;;;;;29.20;13.13;;;5.40;99.90;;;;;;5095533;28;20279;-74
2023/12/14 09:33:02;;;;;;;33.43;14.23;;;5.50;99.90;;;;;;5095210;28;20442;-76
2023/12/14 09:35:27;;;;;;;22.03;13.03;;;5.60;99.90;;;;;;5094051;28;20048;-75
2023/12/14 09:37:53;;;;;;;23.73;13.43;;;5.60;99.90;;;;;;5095887;28;20050;-71
2023/12/14 09:40:19;;;;;;;20.37;11.87;;;5.60;99.90;;;;;;5095103;28;20056;-75
2023/12/14 09:42:45;;;;;;;25.37;12.00;;;5.60;99.90;;;;;;5095535;28;20048;-75
2023/12/14 09:45:11;;;;;;;21.17;12.17;;;5.70;99.90;;;;;;5094035;28;20391;-76
2023/12/14 09:47:38;;;;;;;22.03;12.57;;;5.70;99.90;;;;;;5094815;28;20380;-79
2023/12/14 09:50:05;;;;;;;22.80;13.40;;;5.70;99.90;;;;;;5093441;28;20294;-79
2023/12/14 09:52:33;;;;;;;24.10;13.63;;;5.70;99.90;;;;;;5094833;28;20287;-78
2023/12/14 09:54:59;;;;;;;21.33;12.57;;;5.70;99.90;;;;;;5094758;28;20286;-78
2023/12/14 09:57:26;;;;;;;20.60;13.20;;;5.70;99.90;;;;;;5094250;28;20381;-77
2023/12/14 09:59:53;;;;;;;26.10;12.97;;;5.70;99.90;;;;;;5093457;28;20783;-77
2023/12/14 10:02:19;;;;;;;24.67;12.93;;;5.70;99.90;;;;;;5093901;28;20302;-77
2023/12/14 10:04:46;;;;;;;23.93;13.73;;;5.80;99.90;;;;;;5093676;28;20772;-77
2023/12/14 10:07:12;;;;;;;24.50;12.43;;;5.70;99.90;;;;;;5094425;28;20305;-77
2023/12/14 10:09:38;;;;;;;24.17;13.77;;;5.70;99.90;;;;;;5094223;28;20290;-77
2023/12/14 10:12:08;;;;;;;18.10;12.23;;;5.70;99.90;;;;;;5094370;28;20103;-77
2023/12/14 10:14:35;;;;;;;25.73;13.20;;;5.70;99.90;;;;;;5093819;28;20292;-80
2023/12/14 10:17:21;;;;;;;27.00;13.47;;;5.60;99.90;;;;;;5094633;28;20305;-81
2023/12/14 10:19:48;;;;;;;22.35;14.02;;;5.60;99.90;;;;;;5094211;28;20302;-79
2023/12/14 10:22:19;;;;;;;24.20;13.27;;;5.60;99.90;;;;;;5093959;28;20055;-81
2023/12/14 10:24:47;;;;;;;28.10;13.80;;;5.60;99.90;;;;;;5076300;28;20290;-81
2023/12/14 10:27:15;;;;;;;22.23;13.17;;;5.60;99.90;;;;;;5076639;28;20305;-82
2023/12/14 10:29:42;;;;;;;20.03;12.23;;;5.60;99.90;;;;;;5094171;28;20427;-77
2023/12/14 10:32:08;;;;;;;22.67;13.17;;;5.70;99.90;;;;;;5092941;28;20470;-81
2023/12/14 10:34:39;;;;;;;24.90;13.27;;;5.70;99.90;;;;;;5094364;28;20630;-77
2023/12/14 10:37:06;;;;;;;24.23;12.47;;;5.80;99.90;;;;;;5093409;28;20313;-80
2023/12/14 10:39:37;;;;;;;23.40;13.67;;;5.80;99.90;;;;;;5094003;28;20282;-86
2023/12/14 10:42:04;;;;;;;20.90;12.53;;;5.80;99.90;;;;;;5093664;28;20768;-84
2023/12/14 10:44:34;;;;;;;20.93;12.77;;;5.90;99.90;;;;;;5075972;28;20385;-82
2023/12/14 10:47:02;;;;;;;25.50;14.40;;;5.90;99.90;;;;;;5094222;28;20358;-83
2023/12/14 10:49:29;;;;;;;21.63;13.27;;;6.00;99.90;;;;;;5094691;28;20336;-81
2023/12/14 10:51:57;;;;;;;23.40;13.10;;;6.00;99.90;;;;;;5092721;28;20626;-82
2023/12/14 10:54:25;;;;;;;21.57;12.20;;;6.00;99.90;;;;;;5093694;28;20290;-84
2023/12/14 10:56:56;;;;;;;23.43;12.10;;;6.10;99.90;;;;;;5091956;28;20286;-85
2023/12/14 10:59:23;;;;;;;22.67;11.90;;;6.10;99.90;;;;;;5093917;28;20294;-83
2023/12/14 11:01:53;;;;;;;20.60;12.47;;;6.10;99.90;;;;;;5094394;28;20286;-82
2023/12/14 11:04:21;;;;;;;20.80;11.80;;;6.10;99.90;;;;;;5076409;28;20413;-76
2023/12/14 11:06:48;;;;;;;24.77;12.60;;;6.10;99.90;;;;;;5094286;28;20336;-73
2023/12/14 11:09:18;;;;;;;16.53;9.50;;;6.20;99.90;;;;;;5075838;28;20834;-78
2023/12/14 11:11:53;;;;;;;18.57;13.17;;;6.20;99.90;;;;;;5093634;28;20350;-79
2023/12/14 11:14:20;;;;;;;18.30;11.43;;;6.20;99.90;;;;;;5092679;28;20294;-77
2023/12/14 11:16:47;;;;;;;21.03;12.50;;;6.20;99.90;;;;;;5093577;28;20127;-75
2023/12/14 11:19:28;;;;;;;21.47;11.80;;;6.30;99.90;;;;;;5094238;28;20335;-83
2023/12/14 11:21:57;;;;;;;18.17;12.20;;;6.20;99.90;;;;;;5093997;28;20739;-79
2023/12/14 11:24:23;;;;;;;20.83;12.07;;;6.30;99.90;;;;;;5092644;28;20793;-79
2023/12/14 11:26:50;;;;;;;22.63;11.33;;;6.30;99.90;;;;;;5092360;28;20321;-79
2023/12/14 11:29:17;;;;;;;21.60;12.40;;;6.30;99.90;;;;;;5076560;28;20724;-79
2023/12/14 11:31:43;;;;;;;20.27;12.17;;;6.30;99.90;;;;;;5093559;28;20758;-79
2023/12/14 11:34:09;;;;;;;17.30;11.30;;;6.20;99.90;;;;;;5093487;28;20289;-79
2023/12/14 11:36:36;;;;;;;22.87;12.27;;;6.20;99.90;;;;;;5092842;28;20044;-77
2023/12/14 11:39:03;;;;;;;18.90;11.60;;;6.30;99.90;;;;;;5093264;28;20086;-79
2023/12/14 11:41:31;;;;;;;19.23;12.23;;;6.30;99.90;;;;;;5092263;28;20274;-78
2023/12/14 11:43:56;;;;;;;18.93;12.43;;;6.20;99.90;;;;;;5092296;28;20343;-77
2023/12/14 11:46:22;;;;;;;18.77;12.07;;;6.30;99.90;;;;;;5093384;28;20282;-79
2023/12/14 11:48:51;;;;;;;18.67;12.17;;;6.30;99.90;;;;;;5093855;28;20473;-78
2023/12/14 11:51:17;;;;;;;21.47;11.90;;;6.30;99.90;;;;;;5093360;28;20454;-77
2023/12/14 11:53:48;;;;;;;19.83;12.80;;;6.30;99.90;;;;;;5093317;28;20365;-77
2023/12/14 11:56:17;;;;;;;22.87;12.57;;;6.30;99.90;;;;;;5092948;28;20317;-76
2023/12/14 11:58:44;;;;;;;20.27;12.33;;;6.30;99.90;;;;;;5093526;28;20336;-74
2023/12/14 12:01:12;;;;;;;19.80;12.77;;;6.30;99.90;;;;;;5093912;28;20308;-76
2023/12/14 12:03:39;;;;;;;22.00;13.00;;;6.30;99.90;;;;;;5092155;28;20282;-75
2023/12/14 12:06:04;;;;;;;20.80;12.03;;;6.30;99.90;;;;;;5092180;28;20624;-75
2023/12/14 12:08:30;;;;;;;20.33;13.77;;;6.30;99.90;;;;;;5095365;28;20327;-75
2023/12/14 12:10:57;;;;;;;20.90;13.20;;;6.30;99.90;;;;;;5096869;28;20040;-75
2023/12/14 12:13:23;;;;;;;19.87;13.33;;;6.30;99.90;;;;;;5096679;28;20488;-75
2023/12/14 12:15:49;;;;;;;17.27;12.73;;;6.30;99.90;;;;;;5097273;28;20286;-74
2023/12/14 12:18:16;;;;;;;19.33;11.43;;;6.30;99.90;;;;;;5096629;28;20181;-73
2023/12/14 12:20:42;;;;;;;19.67;10.57;;;6.30;99.90;;;;;;5095694;28;20278;-78
2023/12/14 12:23:08;;;;;;;20.97;12.80;;;6.30;99.90;;;;;;5095401;28;20284;-74
2023/12/14 12:25:34;;;;;;;17.67;12.50;;;6.30;99.90;;;;;;5096808;28;20054;-76
2023/12/14 12:28:01;;;;;;;20.33;12.97;;;6.30;99.90;;;;;;5078358;28;20387;-76
2023/12/14 12:30:27;;;;;;;20.13;12.83;;;6.40;99.90;;;;;;5096377;28;20324;-77
2023/12/14 12:32:55;;;;;;;17.47;11.90;;;6.40;99.90;;;;;;5096284;28;20598;-77
2023/12/14 12:35:21;;;;;;;21.43;12.50;;;6.40;99.90;;;;;;5096924;28;20290;-79